Time;durP1;ratioP1;P1;durP2;ratioP2;P2;SDS_P1;SDS_P2;PMS_P1;PMS_P2;Temp;Humidity;BMP_temperature;BMP_pressure;BME280_temperature;BME280_humidity;BME280_pressure;Samples;Min_cycle;Max_cycle;Signal;HPM_P1;HPM_P2
2023/09/08 00:01:40;;;;;;;4.75;1.25;;;;;;;13.43;89.76;101594.75;10419278;28;20056;-73
2023/09/08 00:06:43;;;;;;;3.33;1.30;;;;;;;13.58;89.04;101601.09;10389505;28;20049;-72
2023/09/08 00:11:45;;;;;;;5.85;1.42;;;;;;;13.62;88.36;101600.53;10412384;28;20057;-73
2023/09/08 00:16:48;;;;;;;2.00;1.35;;;;;;;13.43;88.92;101584.56;10401986;28;20038;-73
2023/09/08 00:21:50;;;;;;;3.35;1.23;;;;;;;13.41;89.52;101589.53;10408865;28;20423;-73
2023/09/08 00:26:53;;;;;;;4.22;1.60;;;;;;;13.45;89.17;101587.84;10413006;28;20038;-73
2023/09/08 00:31:56;;;;;;;2.90;1.70;;;;;;;13.67;88.93;101581.19;10417150;28;20045;-73
2023/09/08 00:37:00;;;;;;;3.60;1.50;;;;;;;13.64;88.68;101571.56;10406175;28;20034;-73
2023/09/08 00:42:03;;;;;;;2.33;1.60;;;;;;;13.63;88.95;101574.59;10401524;28;20053;-72
2023/09/08 00:47:05;;;;;;;4.63;1.90;;;;;;;13.75;88.25;101570.44;10421395;28;20393;-73
2023/09/08 00:52:08;;;;;;;4.32;1.40;;;;;;;13.81;89.07;101560.22;10412856;28;20520;-71
2023/09/08 00:57:13;;;;;;;1.73;1.17;;;;;;;13.84;88.92;101556.88;10398277;28;20042;-72
2023/09/08 01:02:15;;;;;;;2.35;1.25;;;;;;;13.81;89.58;101555.53;10392669;28;20037;-72
2023/09/08 01:07:19;;;;;;;1.75;1.00;;;;;;;13.87;90.15;101564.59;10464204;28;20048;-73
2023/09/08 01:12:22;;;;;;;2.30;1.38;;;;;;;13.91;89.97;101557.44;10403331;28;20038;-72
2023/09/08 01:17:25;;;;;;;3.15;0.95;;;;;;;13.98;89.54;101560.72;10402664;28;20038;-72
2023/09/08 01:22:57;;;;;;;2.58;1.00;;;;;;;13.97;90.54;101555.47;10413254;28;20068;-73
2023/09/08 01:28:01;;;;;;;1.67;1.00;;;;;;;13.91;90.84;101562.13;10430566;28;20092;-73
2023/09/08 01:33:04;;;;;;;2.00;1.15;;;;;;;13.95;91.56;101552.19;10404792;28;20065;-74
2023/09/08 01:38:06;;;;;;;2.38;1.08;;;;;;;13.97;91.66;101552.72;10403648;28;20057;-73
2023/09/08 01:43:09;;;;;;;1.27;1.02;;;;;;;13.96;91.55;101543.59;10446460;28;20046;-73
2023/09/08 01:48:11;;;;;;;1.98;1.00;;;;;;;13.97;92.12;101539.75;10445805;28;20400;-73
2023/09/08 01:53:14;;;;;;;1.52;1.15;;;;;;;14.01;92.03;101534.47;10391521;28;20042;-73
2023/09/08 01:58:16;;;;;;;1.70;1.10;;;;;;;14.15;91.21;101538.28;10404087;28;20392;-73
2023/09/08 02:03:18;;;;;;;3.88;1.30;;;;;;;14.25;91.02;101540.19;10415954;28;20049;-72
2023/09/08 02:08:20;;;;;;;2.20;1.13;;;;;;;14.27;91.03;101521.41;10424617;28;20056;-73
2023/09/08 02:13:23;;;;;;;3.17;1.20;;;;;;;14.31;91.20;101519.72;10434559;28;20049;-72
2023/09/08 02:18:26;;;;;;;2.58;1.17;;;;;;;14.38;91.39;101517.44;10421259;28;20053;-72
2023/09/08 02:23:28;;;;;;;2.78;1.15;;;;;;;14.38;91.61;101512.75;10403989;28;20044;-72
2023/09/08 02:28:30;;;;;;;4.32;1.38;;;;;;;14.26;92.36;101519.75;10398915;28;20416;-73
2023/09/08 02:33:33;;;;;;;2.58;1.00;;;;;;;14.21;92.66;101517.00;10402171;28;20060;-72
2023/09/08 02:38:35;;;;;;;2.30;1.00;;;;;;;14.14;93.49;101517.31;10401096;28;20049;-72
2023/09/08 02:43:38;;;;;;;4.50;1.60;;;;;;;14.09;94.15;101511.81;10400128;28;20042;-73
2023/09/08 02:48:41;;;;;;;3.45;1.00;;;;;;;14.02;94.27;101503.84;10401647;28;20531;-72
2023/09/08 02:53:43;;;;;;;2.97;1.20;;;;;;;14.01;95.33;101496.66;10385392;28;20042;-72
2023/09/08 02:58:46;;;;;;;3.28;1.20;;;;;;;14.08;95.88;101477.88;10408698;28;20046;-72
2023/09/08 03:03:48;;;;;;;4.28;1.50;;;;;;;14.26;95.03;101481.09;10400830;28;20050;-73
2023/09/08 03:08:52;;;;;;;4.03;1.50;;;;;;;14.27;94.69;101477.22;10403615;28;20405;-73
2023/09/08 03:13:54;;;;;;;2.15;1.05;;;;;;;14.26;94.94;101470.06;10401727;28;20404;-73
2023/09/08 03:18:56;;;;;;;2.70;1.40;;;;;;;14.32;94.99;101463.38;10399749;28;20041;-73
2023/09/08 03:24:00;;;;;;;6.22;1.42;;;;;;;14.35;95.10;101473.84;10397262;28;20046;-73
2023/09/08 03:29:03;;;;;;;2.03;1.23;;;;;;;14.44;95.35;101477.69;10408738;28;20447;-73
2023/09/08 03:34:07;;;;;;;2.15;1.40;;;;;;;14.33;95.20;101467.78;10407429;28;20049;-73
2023/09/08 03:39:10;;;;;;;2.92;1.48;;;;;;;14.28;95.65;101463.13;10413777;28;20045;-73
2023/09/08 03:44:13;;;;;;;3.58;1.27;;;;;;;14.24;96.02;101462.06;10420190;28;20033;-73
2023/09/08 03:49:15;;;;;;;2.92;1.40;;;;;;;14.32;96.61;101469.72;10409396;28;20042;-73
2023/09/08 03:54:18;;;;;;;2.15;1.52;;;;;;;14.34;96.83;101463.91;10432256;28;20046;-72
2023/09/08 03:59:20;;;;;;;3.17;1.50;;;;;;;14.40;96.61;101465.53;10394149;28;20045;-72
2023/09/08 04:04:22;;;;;;;5.20;1.60;;;;;;;14.44;96.70;101478.53;10402281;28;20041;-73
2023/09/08 04:09:25;;;;;;;3.33;1.60;;;;;;;14.44;96.88;101483.22;10405516;28;20048;-72
2023/09/08 04:14:28;;;;;;;2.60;1.60;;;;;;;14.34;97.12;101473.03;10402089;28;20034;-72
2023/09/08 04:19:30;;;;;;;6.40;1.70;;;;;;;14.27;97.51;101480.00;10404416;28;20057;-73
2023/09/08 04:24:36;;;;;;;1.85;1.52;;;;;;;14.26;97.29;101478.34;10403318;28;20047;-73
2023/09/08 04:29:38;;;;;;;4.63;1.70;;;;;;;14.22;97.42;101468.94;10393775;28;20504;-73
2023/09/08 04:34:41;;;;;;;3.25;1.60;;;;;;;14.25;96.80;101466.47;10405633;28;20488;-73
2023/09/08 04:39:44;;;;;;;3.10;2.30;;;;;;;14.25;96.38;101460.94;10388899;28;20053;-73
2023/09/08 04:44:46;;;;;;;3.92;2.72;;;;;;;14.26;96.03;101464.53;10420516;28;20053;-73
2023/09/08 04:49:48;;;;;;;6.80;2.28;;;;;;;14.32;95.85;101461.44;10385368;28;20053;-73
2023/09/08 04:54:51;;;;;;;3.90;2.92;;;;;;;14.40;95.81;101460.00;10406694;28;20050;-72
2023/09/08 04:59:53;;;;;;;2.13;1.90;;;;;;;14.45;94.74;101465.53;10402996;28;20440;-72
2023/09/08 05:04:56;;;;;;;3.63;1.83;;;;;;;14.52;94.06;101462.44;10403200;28;20042;-72
2023/09/08 05:09:59;;;;;;;1.95;1.40;;;;;;;14.61;94.51;101463.50;10403904;28;20488;-74
2023/09/08 05:15:10;;;;;;;5.15;1.80;;;;;;;14.70;92.79;101458.97;10401359;28;20557;-72
2023/09/08 05:20:14;;;;;;;5.00;3.25;;;;;;;14.90;92.16;101449.69;10410092;28;20049;-72
2023/09/08 05:25:17;;;;;;;3.60;1.70;;;;;;;15.26;90.11;101445.44;10402640;28;20050;-81
2023/09/08 05:30:20;;;;;;;4.38;1.38;;;;;;;16.32;84.61;101456.34;10403178;28;20045;-73
2023/09/08 05:35:22;;;;;;;2.63;1.48;;;;;;;16.74;80.76;101454.59;10422748;28;20049;-73
2023/09/08 05:40:26;;;;;;;3.03;1.60;;;;;;;16.13;82.11;101458.25;10427943;28;20077;-73
2023/09/08 05:45:30;;;;;;;4.72;2.03;;;;;;;15.61;83.74;101457.25;10395404;28;20044;-73
2023/09/08 05:50:33;;;;;;;3.10;1.70;;;;;;;15.25;85.93;101451.28;10402633;28;20045;-73
2023/09/08 05:55:35;;;;;;;3.60;1.90;;;;;;;15.28;86.10;101446.00;10403503;28;20049;-73
2023/09/08 06:00:38;;;;;;;4.93;1.80;;;;;;;15.43;85.64;101422.88;10401487;28;20054;-72
2023/09/08 06:05:40;;;;;;;2.92;1.67;;;;;;;15.59;84.24;101429.06;10389086;28;20424;-73
2023/09/08 06:10:42;;;;;;;4.28;1.90;;;;;;;15.91;83.06;101433.91;10402980;28;20084;-73
2023/09/08 06:15:45;;;;;;;2.78;1.55;;;;;;;17.99;74.82;101432.19;10402549;28;20037;-73
2023/09/08 06:20:48;;;;;;;1.88;1.52;;;;;;;17.85;74.40;101428.63;10384884;28;20058;-73
2023/09/08 06:25:51;;;;;;;7.07;1.83;;;;;;;17.82;73.43;101432.84;10396462;28;20057;-73
2023/09/08 06:30:54;;;;;;;2.25;1.48;;;;;;;16.97;76.19;101444.47;10404653;28;20042;-73
2023/09/08 06:35:57;;;;;;;2.20;1.30;;;;;;;16.23;79.70;101447.03;10404490;28;20046;-73
2023/09/08 06:41:00;;;;;;;2.70;1.38;;;;;;;16.19;80.23;101446.00;10402397;28;20054;-73
2023/09/08 06:46:04;;;;;;;1.77;1.45;;;;;;;16.41;79.09;101437.91;10407174;28;20050;-73
2023/09/08 06:51:07;;;;;;;2.45;1.73;;;;;;;16.50;78.41;101432.50;10402612;28;20056;-73
2023/09/08 06:56:10;;;;;;;2.75;1.50;;;;;;;16.62;78.05;101437.56;10399164;28;20038;-73
2023/09/08 07:01:12;;;;;;;3.05;1.55;;;;;;;16.86;77.17;101427.22;10370296;28;20054;-73
2023/09/08 07:06:15;;;;;;;3.72;1.60;;;;;;;16.90;76.39;101430.19;10399428;28;20400;-72
2023/09/08 07:11:18;;;;;;;3.72;1.38;;;;;;;16.57;77.29;101430.16;10405961;28;20042;-73
2023/09/08 07:16:21;;;;;;;1.90;1.20;;;;;;;16.83;77.14;101413.94;10401740;28;20046;-73
2023/09/08 07:21:25;;;;;;;5.00;1.65;;;;;;;17.43;75.59;101408.38;10399872;28;20053;-72
2023/09/08 07:26:27;;;;;;;3.00;1.40;;;;;;;18.12;72.08;101408.31;10384342;28;20058;-72
2023/09/08 07:31:30;;;;;;;2.85;1.55;;;;;;;18.82;69.30;101405.75;10417238;28;20492;-73
2023/09/08 07:36:36;;;;;;;2.75;1.40;;;;;;;18.81;68.33;101404.13;10407259;28;20415;-72
2023/09/08 07:41:40;;;;;;;2.25;1.48;;;;;;;18.49;69.41;101418.25;10419266;28;20049;-73
2023/09/08 07:46:45;;;;;;;4.60;1.50;;;;;;;18.36;69.99;101417.16;10431867;28;20057;-73
2023/09/08 07:51:49;;;;;;;2.58;1.40;;;;;;;18.23;70.97;101420.84;10402418;28;20049;-72
2023/09/08 07:56:52;;;;;;;4.47;1.83;;;;;;;18.19;70.39;101426.19;10395033;28;20038;-73
2023/09/08 08:01:55;;;;;;;3.25;1.38;;;;;;;18.27;70.20;101427.41;10399672;28;20050;-72
2023/09/08 08:06:59;;;;;;;5.70;2.10;;;;;;;18.72;68.42;101427.44;10410061;28;20045;-73
2023/09/08 08:12:01;;;;;;;5.00;1.23;;;;;;;19.74;65.55;101419.91;10435123;28;20076;-71
2023/09/08 08:17:03;;;;;;;2.25;1.40;;;;;;;19.91;64.63;101422.75;10406159;28;20045;-71
2023/09/08 08:22:05;;;;;;;3.63;1.73;;;;;;;19.23;65.54;101419.38;10405829;28;20061;-70
2023/09/08 08:27:09;;;;;;;3.38;1.73;;;;;;;18.85;66.64;101409.88;10402966;28;20050;-70
2023/09/08 08:32:12;;;;;;;2.60;1.50;;;;;;;18.51;67.65;101411.25;10406373;28;20046;-69
2023/09/08 08:37:17;;;;;;;2.33;1.50;;;;;;;18.62;67.74;101404.28;10400781;28;20042;-70
2023/09/08 08:42:22;;;;;;;4.00;1.98;;;;;;;19.25;66.54;101410.72;10401442;28;20045;-70
2023/09/08 08:47:26;;;;;;;1.25;1.15;;;;;;;19.28;64.92;101407.31;10406445;28;20045;-72
2023/09/08 08:52:29;;;;;;;2.33;1.20;;;;;;;19.39;64.27;101408.66;10398442;28;20054;-70
2023/09/08 08:57:32;;;;;;;4.43;1.50;;;;;;;20.46;62.26;101403.44;10403257;28;20030;-70
2023/09/08 09:02:36;;;;;;;2.38;1.30;;;;;;;21.27;59.21;101394.25;10451652;28;20061;-71
2023/09/08 09:07:41;;;;;;;4.07;1.43;;;;;;;21.43;58.54;101394.50;10405375;28;20393;-70
2023/09/08 09:12:45;;;;;;;3.45;1.52;;;;;;;20.70;59.22;101397.38;10402700;28;20045;-74
2023/09/08 09:18:03;;;;;;;2.55;1.33;;;;;;;20.27;61.03;101389.00;10398408;28;20046;-73
2023/09/08 09:23:06;;;;;;;3.47;1.50;;;;;;;20.15;60.98;101389.69;10394440;28;20504;-74
2023/09/08 09:28:09;;;;;;;3.03;1.48;;;;;;;19.78;61.51;101404.19;10386194;28;20038;-73
2023/09/08 09:33:12;;;;;;;3.05;1.60;;;;;;;19.54;61.78;101397.09;10393421;28;20052;-73
2023/09/08 09:38:14;;;;;;;1.52;1.38;;;;;;;20.07;60.62;101398.84;10406079;28;20041;-73
2023/09/08 09:43:20;;;;;;;3.03;1.35;;;;;;;19.84;59.56;101402.91;10401634;28;20052;-74
2023/09/08 09:48:23;;;;;;;1.60;1.25;;;;;;;19.68;60.28;101404.50;10396307;28;20053;-73
2023/09/08 09:53:25;;;;;;;2.67;1.50;;;;;;;20.05;58.17;101403.91;10403559;28;20041;-73
2023/09/08 09:58:28;;;;;;;2.95;1.60;;;;;;;19.82;59.17;101408.00;10403750;28;20046;-74
2023/09/08 10:03:31;;;;;;;3.17;1.63;;;;;;;20.25;58.09;101396.88;10382214;28;20047;-74
2023/09/08 10:08:37;;;;;;;4.78;1.50;;;;;;;19.65;59.76;101403.22;10396241;28;20042;-74
2023/09/08 10:13:42;;;;;;;4.05;1.50;;;;;;;19.68;60.36;101410.91;10398081;28;20034;-74
2023/09/08 10:18:46;;;;;;;1.73;1.40;;;;;;;19.40;60.29;101401.13;10404693;28;20050;-73
2023/09/08 10:24:01;;;;;;;2.50;1.10;;;;;;;19.61;59.55;101406.94;10400018;28;20042;-72
2023/09/08 10:29:03;;;;;;;2.03;1.40;;;;;;;19.84;59.80;101402.91;10395257;28;20050;-73
2023/09/08 10:34:06;;;;;;;3.08;1.30;;;;;;;19.73;59.38;101407.97;10434513;28;20038;-73
2023/09/08 10:39:29;;;;;;;2.92;1.63;;;;;;;19.65;59.61;101406.00;10404284;28;20065;-72
2023/09/08 10:44:32;;;;;;;3.13;1.40;;;;;;;19.70;59.00;101407.78;10414939;28;20038;-72
2023/09/08 10:49:38;;;;;;;2.85;1.50;;;;;;;19.52;57.56;101404.94;10393329;28;20045;-72
2023/09/08 10:54:42;;;;;;;2.75;1.38;;;;;;;19.77;55.81;101408.13;10432011;28;20037;-74
2023/09/08 10:59:57;;;;;;;1.63;1.10;;;;;;;19.40;56.20;101404.72;10398792;28;20053;-71
2023/09/08 11:04:59;;;;;;;3.33;1.50;;;;;;;19.60;56.89;101402.50;10394700;28;20045;-71
2023/09/08 11:10:01;;;;;;;3.10;1.77;;;;;;;19.86;56.24;101400.63;10403116;28;20411;-71
2023/09/08 11:15:07;;;;;;;4.07;2.03;;;;;;;19.70;56.55;101402.22;10401230;28;20046;-73
2023/09/08 11:20:10;;;;;;;2.80;1.50;;;;;;;19.85;57.02;101397.03;10391758;28;20519;-72
2023/09/08 11:25:12;;;;;;;3.13;1.50;;;;;;;19.79;55.18;101403.91;10399096;28;20042;-72
2023/09/08 11:30:14;;;;;;;3.00;1.20;;;;;;;19.55;53.23;101398.75;10402501;28;20038;-73
2023/09/08 11:35:20;;;;;;;1.88;1.20;;;;;;;19.40;50.62;101399.16;10403374;28;20041;-73
2023/09/08 11:40:23;;;;;;;1.58;1.08;;;;;;;19.61;50.93;101396.63;10396452;28;20057;-73
2023/09/08 11:45:26;;;;;;;1.60;1.40;;;;;;;19.32;53.09;101399.97;10399873;28;20050;-72
2023/09/08 11:50:30;;;;;;;2.00;1.40;;;;;;;19.55;53.45;101395.97;10406486;28;20045;-72
2023/09/08 11:55:32;;;;;;;3.05;1.10;;;;;;;19.82;50.42;101399.63;10400363;28;20049;-72
2023/09/08 12:00:34;;;;;;;2.53;1.10;;;;;;;19.84;52.11;101398.16;10408496;28;20528;-71
2023/09/08 12:05:37;;;;;;;2.72;1.33;;;;;;;19.85;52.97;101405.38;10403425;28;20053;-73
2023/09/08 12:10:40;;;;;;;1.60;1.23;;;;;;;19.88;53.56;101410.28;10405618;28;20067;-73
2023/09/08 12:15:43;;;;;;;3.13;1.10;;;;;;;19.65;51.72;101411.56;10406553;28;20046;-73
2023/09/08 12:20:46;;;;;;;2.67;1.20;;;;;;;19.39;52.12;101410.59;10414920;28;20052;-73
2023/09/08 12:25:49;;;;;;;8.85;4.10;;;;;;;19.32;52.14;101411.09;10408786;28;20385;-73
2023/09/08 12:30:54;;;;;;;4.32;1.52;;;;;;;19.65;51.59;101408.78;10408656;28;20041;-73
2023/09/08 12:35:57;;;;;;;6.45;1.33;;;;;;;19.82;51.41;101399.63;10383267;28;20491;-73
2023/09/08 12:40:59;;;;;;;2.92;1.27;;;;;;;19.45;52.38;101407.38;10368662;28;20054;-73
2023/09/08 12:46:01;;;;;;;5.88;1.60;;;;;;;19.38;53.36;101397.84;10404206;28;20045;-73
2023/09/08 12:51:04;;;;;;;1.60;1.20;;;;;;;19.31;54.18;101400.28;10389882;28;20046;-73
2023/09/08 12:56:06;;;;;;;6.97;1.95;;;;;;;18.96;55.70;101394.56;10365626;28;20034;-73
2023/09/08 13:01:08;;;;;;;2.88;1.45;;;;;;;18.85;55.19;101393.19;10396104;28;20057;-74
2023/09/08 13:06:10;;;;;;;3.50;1.55;;;;;;;18.76;54.81;101389.53;10393637;28;20522;-78
2023/09/08 13:11:12;;;;;;;5.47;1.83;;;;;;;18.61;55.24;101388.75;10401351;28;20464;-77
2023/09/08 13:16:15;;;;;;;3.97;1.80;;;;;;;18.59;56.35;101393.81;10395546;28;20037;-77
2023/09/08 13:21:17;;;;;;;2.55;1.40;;;;;;;18.68;55.49;101391.13;10403400;28;20061;-77
2023/09/08 13:26:19;;;;;;;2.83;1.67;;;;;;;18.79;55.70;101384.16;10408869;28;20424;-72
2023/09/08 13:31:21;;;;;;;4.10;1.70;;;;;;;18.83;54.58;101389.91;10403982;28;20048;-72
2023/09/08 13:36:23;;;;;;;2.75;1.17;;;;;;;18.81;53.19;101386.63;10403789;28;20042;-73
2023/09/08 13:41:50;;;;;;;2.53;1.42;;;;;;;18.81;54.90;101387.44;10397941;28;20061;-72
2023/09/08 13:46:54;;;;;;;3.05;1.58;;;;;;;18.83;55.68;101390.72;10402601;28;20507;-70
2023/09/08 13:51:56;;;;;;;3.70;1.20;;;;;;;18.97;55.03;101391.44;10403022;28;20050;-71
2023/09/08 13:57:01;;;;;;;1.75;1.10;;;;;;;19.19;55.09;101386.97;10403645;28;20038;-71
2023/09/08 14:02:03;;;;;;;2.22;0.90;;;;;;;19.03;59.09;101399.66;10403957;28;20049;-72
2023/09/08 14:07:06;;;;;;;4.13;1.27;;;;;;;18.26;62.88;101397.97;10398334;28;20030;-71
2023/09/08 14:12:08;;;;;;;2.15;1.05;;;;;;;18.01;63.11;101408.53;10402966;28;20048;-72
2023/09/08 14:17:10;;;;;;;1.83;1.20;;;;;;;17.69;62.62;101412.28;10398065;28;20041;-71
2023/09/08 14:22:12;;;;;;;2.85;0.77;;;;;;;17.52;63.02;101416.78;10399880;28;20052;-70
2023/09/08 14:27:15;;;;;;;2.80;0.82;;;;;;;17.40;64.13;101420.09;10407232;28;20145;-71
2023/09/08 14:32:17;;;;;;;2.88;0.95;;;;;;;17.51;64.11;101421.53;10393223;28;20057;-72
2023/09/08 14:37:19;;;;;;;2.92;1.23;;;;;;;17.36;64.09;101421.84;10393388;28;20050;-72
2023/09/08 14:42:21;;;;;;;1.27;0.90;;;;;;;17.47;64.90;101426.88;10394806;28;20054;-73
2023/09/08 14:47:24;;;;;;;2.15;1.05;;;;;;;17.62;64.00;101422.16;10378795;28;20053;-71
2023/09/08 14:52:26;;;;;;;2.35;1.00;;;;;;;17.74;63.82;101425.25;10401176;28;20389;-71
2023/09/08 14:57:28;;;;;;;3.03;1.23;;;;;;;17.67;64.15;101425.63;10400253;28;20046;-71
2023/09/08 15:02:31;;;;;;;2.63;1.00;;;;;;;17.73;63.93;101430.00;10396727;28;20053;-72
2023/09/08 15:07:33;;;;;;;2.65;0.85;;;;;;;17.65;63.78;101430.66;10397504;28;20050;-73
2023/09/08 15:12:35;;;;;;;3.17;0.90;;;;;;;17.48;64.44;101433.25;10397049;28;20056;-73
2023/09/08 15:17:38;;;;;;;1.75;0.95;;;;;;;17.15;65.57;101438.03;10397653;28;20389;-73
2023/09/08 15:22:40;;;;;;;4.93;1.10;;;;;;;16.99;65.78;101443.03;10390089;28;20046;-86
2023/09/08 15:27:43;;;;;;;3.80;0.63;;;;;;;16.81;66.58;101439.19;10421125;28;20046;-76
2023/09/08 15:32:45;;;;;;;2.15;1.10;;;;;;;16.89;66.51;101451.56;10408197;28;20508;-77
2023/09/08 15:37:47;;;;;;;1.05;0.65;;;;;;;16.68;67.28;101444.72;10436375;28;20547;-76
2023/09/08 15:42:51;;;;;;;3.03;0.90;;;;;;;16.71;67.29;101446.88;10392855;28;20042;-77
2023/09/08 15:47:53;;;;;;;3.35;1.88;;;;;;;16.69;66.69;101443.59;10391697;28;20500;-73
2023/09/08 15:52:56;;;;;;;1.48;0.73;;;;;;;16.64;66.66;101451.94;10402377;28;20042;-74
2023/09/08 15:57:58;;;;;;;1.42;1.05;;;;;;;16.49;67.97;101450.25;10403293;28;20417;-72
2023/09/08 16:03:00;;;;;;;4.18;1.92;;;;;;;16.35;67.28;101452.13;10395901;28;20054;-72
2023/09/08 16:08:03;;;;;;;4.57;1.27;;;;;;;16.19;67.73;101457.06;10400037;28;20054;-72
2023/09/08 16:13:05;;;;;;;3.80;1.60;;;;;;;16.18;67.74;101464.56;10395326;28;20034;-72
2023/09/08 16:18:09;;;;;;;2.45;1.45;;;;;;;16.12;68.05;101476.81;10407943;28;20041;-73
2023/09/08 16:23:11;;;;;;;2.75;1.40;;;;;;;16.11;67.89;101479.88;10403482;28;20419;-71
2023/09/08 16:28:14;;;;;;;1.98;1.23;;;;;;;15.95;68.54;101485.63;10406533;28;20045;-73
2023/09/08 16:33:16;;;;;;;3.97;1.25;;;;;;;15.84;68.87;101484.13;10403554;28;20420;-71
2023/09/08 16:38:18;;;;;;;3.33;1.35;;;;;;;15.83;69.39;101488.00;10406371;28;20138;-71
2023/09/08 16:43:20;;;;;;;3.88;1.50;;;;;;;15.89;68.67;101505.38;10400773;28;20062;-71
2023/09/08 16:48:23;;;;;;;1.85;1.30;;;;;;;15.67;70.19;101501.19;10407198;28;20056;-71
2023/09/08 16:53:25;;;;;;;2.55;1.63;;;;;;;15.66;70.25;101507.84;10408237;28;20408;-71
2023/09/08 16:58:28;;;;;;;2.67;1.13;;;;;;;15.62;70.76;101515.09;10388167;28;20049;-70
2023/09/08 17:03:30;;;;;;;2.10;1.15;;;;;;;15.54;71.04;101521.22;10406489;28;20046;-71
2023/09/08 17:08:32;;;;;;;2.35;1.30;;;;;;;15.30;71.77;101518.44;10393143;28;20060;-73
2023/09/08 17:13:34;;;;;;;4.05;1.50;;;;;;;15.24;72.31;101522.34;10401945;28;20052;-74
2023/09/08 17:18:36;;;;;;;4.68;1.55;;;;;;;15.20;72.94;101524.06;10400428;28;20034;-71
2023/09/08 17:23:39;;;;;;;3.63;1.55;;;;;;;15.08;73.95;101526.38;10395908;28;20058;-74
2023/09/08 17:28:41;;;;;;;3.22;1.85;;;;;;;15.07;74.36;101533.84;10398713;28;20042;-72
2023/09/08 17:33:43;;;;;;;7.70;1.52;;;;;;;15.00;75.11;101536.13;10396808;28;20037;-72
2023/09/08 17:38:45;;;;;;;4.57;1.63;;;;;;;14.98;75.28;101540.28;10391328;28;20046;-74
2023/09/08 17:43:48;;;;;;;6.00;1.95;;;;;;;15.01;75.74;101536.94;10393249;28;20053;-72
2023/09/08 17:48:50;;;;;;;2.22;1.83;;;;;;;15.05;74.70;101544.34;10393120;28;20050;-79
2023/09/08 17:53:52;;;;;;;4.93;2.55;;;;;;;15.03;74.24;101545.75;10403847;28;20042;-81
2023/09/08 17:58:55;;;;;;;3.42;1.50;;;;;;;14.88;74.11;101548.63;10384053;28;20056;-73
2023/09/08 18:03:59;;;;;;;5.43;1.95;;;;;;;14.99;73.96;101551.06;10389669;28;20041;-72
2023/09/08 18:09:06;;;;;;;6.53;2.28;;;;;;;15.32;73.00;101556.84;10400401;28;20054;-74
2023/09/08 18:14:10;;;;;;;4.50;1.90;;;;;;;14.99;73.48;101553.81;10392603;28;20045;-75
2023/09/08 18:19:12;;;;;;;2.92;1.30;;;;;;;14.99;72.80;101558.53;10396671;28;20050;-75
2023/09/08 18:24:15;;;;;;;4.07;1.77;;;;;;;14.73;73.68;101553.16;10401970;28;20053;-75
2023/09/08 18:29:17;;;;;;;5.68;2.03;;;;;;;14.71;74.30;101554.56;10399873;28;20050;-75
2023/09/08 18:34:20;;;;;;;3.50;1.58;;;;;;;14.91;73.80;101564.66;10398640;28;20045;-75
2023/09/08 18:39:22;;;;;;;3.55;1.75;;;;;;;14.94;73.05;101561.31;10401380;28;20057;-75
2023/09/08 18:44:25;;;;;;;2.22;1.55;;;;;;;14.75;73.71;101566.69;10397430;28;20050;-74
2023/09/08 18:49:27;;;;;;;7.72;4.38;;;;;;;14.49;74.52;101574.31;10421625;28;20064;-74
2023/09/08 18:54:31;;;;;;;8.85;4.25;;;;;;;14.33;75.40;101570.78;10398717;28;20118;-75
2023/09/08 18:59:34;;;;;;;10.23;5.10;;;;;;;14.44;75.09;101577.13;10391206;28;20042;-73
2023/09/08 19:04:36;;;;;;;7.05;4.30;;;;;;;14.46;75.75;101577.66;10398029;28;20046;-73
2023/09/08 19:29:50;;;;;;;5.55;2.25;;;;;;;14.08;78.88;101590.22;10389745;28;20134;-72
2023/09/08 19:34:53;;;;;;;3.60;2.25;;;;;;;14.09;78.86;101587.16;10387982;28;20053;-72
2023/09/08 19:39:55;;;;;;;4.43;1.88;;;;;;;14.14;79.48;101584.38;10397637;28;20049;-73
2023/09/08 19:44:58;;;;;;;6.38;2.05;;;;;;;14.40;77.97;101589.78;10400247;28;20037;-73
2023/09/08 19:50:01;;;;;;;4.25;2.17;;;;;;;14.25;79.11;101581.59;10402947;28;20061;-73
2023/09/08 19:55:03;;;;;;;5.28;2.20;;;;;;;14.18;79.85;101595.69;10385010;28;20045;-73
2023/09/08 20:00:06;;;;;;;3.85;2.13;;;;;;;14.14;79.93;101589.91;10399748;28;20038;-73
2023/09/08 20:05:14;;;;;;;4.07;2.33;;;;;;;14.19;79.92;101603.69;10396697;28;20038;-73
2023/09/08 20:10:17;;;;;;;5.10;2.33;;;;;;;14.08;80.91;101602.09;10405823;28;20053;-73
2023/09/08 20:15:26;;;;;;;10.57;2.58;;;;;;;14.17;80.93;101602.31;10429527;28;20056;-73
2023/09/08 20:20:29;;;;;;;7.35;2.65;;;;;;;14.12;80.77;101600.41;10400531;28;20038;-72
2023/09/08 20:25:32;;;;;;;3.42;2.17;;;;;;;13.91;81.44;101607.09;10373889;28;20053;-74
2023/09/08 20:30:38;;;;;;;12.77;3.30;;;;;;;13.89;81.79;101620.34;10390853;28;20045;-73
2023/09/08 20:35:41;;;;;;;7.78;2.55;;;;;;;13.99;82.41;101619.47;10385069;28;20037;-72
2023/09/08 20:40:47;;;;;;;7.70;2.88;;;;;;;14.09;81.64;101613.94;10406722;28;20034;-73
2023/09/08 20:45:58;;;;;;;5.07;2.33;;;;;;;13.82;81.54;101619.78;10401560;28;20432;-72
2023/09/08 20:51:13;;;;;;;5.25;3.00;;;;;;;14.19;81.60;101625.75;10407206;28;20058;-72
2023/09/08 20:56:16;;;;;;;7.22;2.60;;;;;;;14.53;80.07;101621.53;10399126;28;20040;-73
2023/09/08 21:01:18;;;;;;;7.32;2.80;;;;;;;14.04;81.85;101622.22;10389858;28;20046;-73
2023/09/08 21:06:20;;;;;;;7.10;2.35;;;;;;;14.11;81.42;101626.34;10362335;28;20037;-73
2023/09/08 21:11:25;;;;;;;6.38;2.97;;;;;;;14.00;82.09;101633.00;10377809;28;20041;-85
2023/09/08 21:16:28;;;;;;;7.30;2.38;;;;;;;13.94;81.59;101625.84;10386421;28;20542;-72
2023/09/08 21:21:32;;;;;;;5.95;2.33;;;;;;;14.22;80.81;101631.81;10375313;28;20643;-71
2023/09/08 21:26:34;;;;;;;7.93;3.22;;;;;;;14.43;79.50;101637.03;10343436;28;20048;-72
2023/09/08 21:31:37;;;;;;;6.15;2.38;;;;;;;14.09;80.51;101641.53;10381616;28;20054;-72
2023/09/08 21:36:40;;;;;;;6.35;2.05;;;;;;;13.68;82.54;101638.03;10360169;28;20526;-72
2023/09/08 21:41:42;;;;;;;6.60;2.40;;;;;;;13.77;82.46;101639.13;10380319;28;20045;-73
2023/09/08 21:46:44;;;;;;;6.55;2.03;;;;;;;13.90;82.24;101638.56;10390991;28;20037;-73
2023/09/08 21:51:48;;;;;;;6.88;1.90;;;;;;;14.13;80.40;101637.13;10387684;28;20046;-72
2023/09/08 21:56:51;;;;;;;4.50;2.03;;;;;;;13.60;82.24;101642.19;10392927;28;20065;-73
2023/09/08 22:01:55;;;;;;;6.15;2.08;;;;;;;13.41;83.49;101646.59;10403446;28;20504;-73
2023/09/08 22:06:59;;;;;;;6.78;2.22;;;;;;;13.31;84.52;101650.16;10406101;28;20137;-72
2023/09/08 22:12:01;;;;;;;3.88;1.65;;;;;;;13.28;85.28;101659.00;10405354;28;20072;-72
2023/09/08 22:17:04;;;;;;;5.30;1.67;;;;;;;13.23;85.29;101661.75;10376360;28;20057;-74
2023/09/08 22:22:07;;;;;;;8.77;1.77;;;;;;;13.28;84.98;101665.31;10420357;28;20042;-73
2023/09/08 22:27:09;;;;;;;4.85;1.88;;;;;;;13.29;85.75;101666.16;10401207;28;20034;-72
2023/09/08 22:32:12;;;;;;;4.15;1.88;;;;;;;13.36;85.17;101671.38;10401994;28;20048;-73
2023/09/08 22:37:14;;;;;;;4.30;1.70;;;;;;;13.27;84.95;101668.38;10403817;28;20056;-73
2023/09/08 22:42:17;;;;;;;6.95;1.80;;;;;;;13.15;86.00;101676.84;10394370;28;20060;-73
2023/09/08 22:47:19;;;;;;;3.53;1.80;;;;;;;13.18;85.44;101678.25;10403804;28;20045;-73
2023/09/08 22:52:21;;;;;;;2.78;1.63;;;;;;;13.09;86.08;101677.13;10386273;28;20053;-73
2023/09/08 22:57:24;;;;;;;4.32;1.67;;;;;;;13.04;86.87;101685.38;10403653;28;20041;-73
2023/09/08 23:02:27;;;;;;;3.67;1.83;;;;;;;12.98;87.04;101681.78;10402056;28;20062;-73
2023/09/08 23:07:29;;;;;;;2.85;1.45;;;;;;;13.01;86.83;101686.72;10398582;28;20034;-73
2023/09/08 23:12:31;;;;;;;4.25;1.48;;;;;;;12.92;87.69;101688.38;10403331;28;20049;-73
2023/09/08 23:17:33;;;;;;;3.15;1.88;;;;;;;12.85;87.75;101687.81;10402351;28;20041;-73
2023/09/08 23:22:36;;;;;;;4.35;1.60;;;;;;;12.68;88.40;101688.88;10403100;28;20045;-73
2023/09/08 23:27:39;;;;;;;4.60;1.90;;;;;;;12.78;88.42;101692.72;10384072;28;20519;-73
2023/09/08 23:32:41;;;;;;;2.85;1.92;;;;;;;13.10;86.76;101698.06;10401751;28;20034;-74